Time;durP1;ratioP1;P1;durP2;ratioP2;P2;SDS_P1;SDS_P2;PMS_P1;PMS_P2;Temp;Humidity;BMP_temperature;BMP_pressure;BME280_temperature;BME280_humidity;BME280_pressure;Samples;Min_cycle;Max_cycle;Signal;HPM_P1;HPM_P2
2022/10/23 00:01:35;;;;;;;8.85;5.07;;;12.50;99.90;;;;;;4995026;28;20029;-81
2022/10/23 00:04:10;;;;;;;6.45;3.95;;;12.40;99.90;;;;;;4989301;28;20026;-81
2022/10/23 00:06:36;;;;;;;7.68;4.10;;;12.40;99.90;;;;;;4999333;28;20026;-80
2022/10/23 00:09:23;;;;;;;7.65;4.32;;;12.30;99.90;;;;;;5004868;28;20018;-80
2022/10/23 00:11:50;;;;;;;6.47;3.90;;;12.30;99.90;;;;;;5021240;28;20441;-79
2022/10/23 00:14:22;;;;;;;5.93;3.65;;;12.30;99.90;;;;;;5022497;28;20058;-81
2022/10/23 00:16:48;;;;;;;5.05;3.65;;;12.30;99.90;;;;;;5001643;28;20133;-81
2022/10/23 00:19:14;;;;;;;5.43;3.60;;;12.30;99.90;;;;;;5016340;28;20046;-81
2022/10/23 00:21:40;;;;;;;6.00;3.55;;;12.30;99.90;;;;;;4999082;28;20026;-80
2022/10/23 00:24:07;;;;;;;6.93;3.42;;;12.30;99.90;;;;;;4998756;28;20362;-81
2022/10/23 00:26:33;;;;;;;7.03;3.97;;;12.30;99.90;;;;;;4998239;28;20029;-80
2022/10/23 00:28:59;;;;;;;5.13;3.42;;;12.30;99.90;;;;;;4998158;28;20101;-80
2022/10/23 00:31:25;;;;;;;5.13;3.08;;;12.30;99.90;;;;;;4998416;28;20473;-80
2022/10/23 00:33:52;;;;;;;4.55;3.17;;;12.30;99.90;;;;;;4998761;28;20500;-81
2022/10/23 00:36:20;;;;;;;5.97;3.42;;;12.30;99.90;;;;;;4998681;28;20021;-80
2022/10/23 00:38:46;;;;;;;5.15;3.50;;;12.20;99.90;;;;;;4998419;28;20513;-80
2022/10/23 00:41:20;;;;;;;4.97;3.15;;;12.30;99.90;;;;;;5015157;28;20022;-81
2022/10/23 00:44:02;;;;;;;5.45;3.97;;;12.20;99.90;;;;;;4997882;28;20398;-81
2022/10/23 00:46:29;;;;;;;5.05;2.83;;;12.30;99.90;;;;;;4997245;28;20092;-80
2022/10/23 00:48:56;;;;;;;4.75;3.20;;;12.20;99.90;;;;;;4997671;28;20034;-80
2022/10/23 00:51:23;;;;;;;6.68;3.25;;;12.20;99.90;;;;;;4997386;28;20026;-80
2022/10/23 00:53:53;;;;;;;4.72;3.05;;;12.20;99.90;;;;;;4997601;28;20108;-80
2022/10/23 00:56:19;;;;;;;6.03;2.88;;;12.20;99.90;;;;;;4983144;28;20103;-80
2022/10/23 00:58:45;;;;;;;5.50;3.20;;;12.20;99.90;;;;;;4997793;28;20029;-80
2022/10/23 01:01:22;;;;;;;5.15;3.20;;;12.20;99.90;;;;;;4986317;28;20030;-82
2022/10/23 01:03:50;;;;;;;6.78;3.40;;;12.20;99.90;;;;;;5006448;28;20026;-81
2022/10/23 01:06:36;;;;;;;5.75;3.33;;;12.20;99.90;;;;;;5001015;28;20026;-80
2022/10/23 01:09:16;;;;;;;5.15;3.45;;;12.20;99.90;;;;;;4997278;28;20084;-80
2022/10/23 01:11:56;;;;;;;5.95;2.95;;;12.20;99.90;;;;;;4997177;28;20026;-80
2022/10/23 01:14:57;;;;;;;4.30;2.85;;;12.20;99.90;;;;;;4997130;28;20501;-80
2022/10/23 01:17:28;;;;;;;4.25;2.78;;;12.10;99.90;;;;;;4962338;28;20034;-80
2022/10/23 01:20:33;;;;;;;5.50;3.20;;;12.10;99.90;;;;;;4997135;28;20026;-80
2022/10/23 01:23:18;;;;;;;6.60;3.10;;;12.20;99.90;;;;;;4977686;28;20084;-80
2022/10/23 01:26:25;;;;;;;6.25;3.13;;;12.10;99.90;;;;;;4996710;28;20105;-80
2022/10/23 01:29:05;;;;;;;4.97;3.30;;;12.10;99.90;;;;;;4996843;28;20030;-80
2022/10/23 01:32:24;;;;;;;5.65;3.45;;;12.20;99.90;;;;;;4996770;28;20021;-80
2022/10/23 01:35:01;;;;;;;7.03;3.95;;;12.20;99.90;;;;;;4973454;28;20532;-80
2022/10/23 01:37:41;;;;;;;5.90;3.63;;;12.10;99.90;;;;;;4996315;28;20168;-80
2022/10/23 01:40:31;;;;;;;5.68;3.50;;;12.20;99.90;;;;;;5014252;28;20535;-81
2022/10/23 01:43:12;;;;;;;7.72;3.63;;;12.20;99.90;;;;;;4990489;28;20046;-81
2022/10/23 01:45:53;;;;;;;5.97;3.50;;;12.10;99.90;;;;;;4977313;28;20114;-80
2022/10/23 01:48:32;;;;;;;6.45;3.42;;;12.20;99.90;;;;;;5013864;28;20427;-80
2022/10/23 01:51:03;;;;;;;6.30;3.53;;;12.20;99.90;;;;;;5000301;28;20467;-80
2022/10/23 01:53:32;;;;;;;5.25;3.53;;;12.20;99.90;;;;;;4996464;28;20394;-79
2022/10/23 01:56:02;;;;;;;5.15;3.83;;;12.20;99.90;;;;;;4996344;28;20030;-80
2022/10/23 01:58:31;;;;;;;6.72;3.95;;;12.20;99.90;;;;;;4996819;28;20470;-80
2022/10/23 02:01:00;;;;;;;5.70;3.75;;;12.20;99.90;;;;;;5000636;28;20034;-81
2022/10/23 02:03:30;;;;;;;5.65;3.78;;;12.20;99.90;;;;;;5013293;28;20037;-80
2022/10/23 02:05:56;;;;;;;5.57;3.88;;;12.20;99.90;;;;;;5020656;28;20006;-80
2022/10/23 02:08:24;;;;;;;6.18;3.80;;;12.20;99.90;;;;;;5010448;28;20117;-81
2022/10/23 02:11:12;;;;;;;5.82;4.00;;;12.20;99.90;;;;;;5016076;28;20026;-81
2022/10/23 02:13:55;;;;;;;9.60;4.53;;;12.20;99.90;;;;;;5000276;28;20033;-80
2022/10/23 02:16:32;;;;;;;5.93;4.00;;;12.20;99.90;;;;;;5001524;28;20034;-80
2022/10/23 02:19:18;;;;;;;5.22;3.40;;;12.20;99.90;;;;;;5001146;28;20026;-81
2022/10/23 02:22:19;;;;;;;7.85;3.80;;;12.20;99.90;;;;;;5018954;28;20026;-80
2022/10/23 02:24:53;;;;;;;6.75;4.13;;;12.10;99.90;;;;;;4984257;28;20045;-81
2022/10/23 02:27:46;;;;;;;6.78;4.22;;;12.10;99.90;;;;;;5000928;28;20026;-80
2022/10/23 02:30:15;;;;;;;6.55;3.85;;;12.10;99.90;;;;;;5002330;28;20028;-81
2022/10/23 02:32:47;;;;;;;6.38;3.90;;;12.00;99.90;;;;;;5004693;28;20018;-81
2022/10/23 02:35:14;;;;;;;6.97;4.55;;;12.00;99.90;;;;;;5007708;28;20462;-81
2022/10/23 02:37:40;;;;;;;5.82;3.67;;;12.00;99.90;;;;;;5010830;28;20026;-81
2022/10/23 02:40:08;;;;;;;6.40;3.80;;;11.90;99.90;;;;;;5012311;28;20093;-81
2022/10/23 02:43:01;;;;;;;7.03;4.13;;;11.90;99.90;;;;;;5011477;28;20026;-80
2022/10/23 02:45:41;;;;;;;7.07;4.00;;;11.90;99.90;;;;;;5014094;28;20026;-81
2022/10/23 02:48:29;;;;;;;7.70;3.83;;;11.90;99.90;;;;;;5017405;28;20379;-81
2022/10/23 02:51:22;;;;;;;5.85;3.67;;;11.90;99.90;;;;;;5016509;28;20022;-81
2022/10/23 02:54:04;;;;;;;6.63;4.30;;;11.90;99.90;;;;;;5002621;28;20074;-81
2022/10/23 02:57:08;;;;;;;7.78;4.65;;;11.90;99.90;;;;;;5016296;28;20116;-80
2022/10/23 02:59:33;;;;;;;;;;;11.80;99.90;;;;;;4951524;28;20034;-81
2022/10/23 03:02:19;;;;;;;5.03;3.10;;;11.80;99.90;;;;;;5005569;28;19972;-81
2022/10/23 03:04:46;;;;;;;6.43;3.45;;;11.80;99.90;;;;;;4992978;28;20089;-80
2022/10/23 03:07:13;;;;;;;7.05;3.60;;;11.80;99.90;;;;;;5015948;28;20104;-80
2022/10/23 03:09:39;;;;;;;7.13;3.90;;;11.80;99.90;;;;;;5016153;28;20041;-80
2022/10/23 03:12:06;;;;;;;6.55;3.92;;;11.80;99.90;;;;;;5015872;28;20477;-81
2022/10/23 03:14:32;;;;;;;6.10;3.63;;;11.70;99.90;;;;;;5015738;28;20120;-80
2022/10/23 03:16:58;;;;;;;6.35;4.13;;;11.80;99.90;;;;;;5015954;28;20120;-80
2022/10/23 03:19:24;;;;;;;5.97;4.35;;;11.80;99.90;;;;;;5020798;28;20033;-80
2022/10/23 03:21:49;;;;;;;6.25;3.75;;;11.80;99.90;;;;;;5023376;28;20362;-80
2022/10/23 03:24:16;;;;;;;6.78;3.90;;;11.80;99.90;;;;;;5020144;28;20022;-80
2022/10/23 03:26:42;;;;;;;6.10;4.03;;;11.90;99.90;;;;;;5016752;28;20026;-79
2022/10/23 03:29:08;;;;;;;5.13;3.90;;;11.80;99.90;;;;;;5014477;28;20477;-80
2022/10/23 03:31:34;;;;;;;5.07;3.70;;;11.90;99.90;;;;;;5015375;28;20029;-80
2022/10/23 03:34:00;;;;;;;6.68;3.65;;;11.90;99.90;;;;;;5015267;28;20030;-80
2022/10/23 03:36:27;;;;;;;6.03;4.03;;;11.90;99.90;;;;;;5000318;28;20028;-80
2022/10/23 03:38:53;;;;;;;5.43;3.90;;;11.80;99.90;;;;;;5016551;28;20036;-80
2022/10/23 03:41:19;;;;;;;6.78;4.22;;;11.90;99.90;;;;;;4998505;28;20034;-80
2022/10/23 03:43:45;;;;;;;4.95;3.95;;;11.90;99.90;;;;;;5016083;28;20025;-80
2022/10/23 03:46:11;;;;;;;6.85;3.60;;;11.90;99.90;;;;;;5001714;28;20434;-81
2022/10/23 03:48:38;;;;;;;6.00;3.63;;;11.90;99.90;;;;;;4999768;28;20046;-81
2022/10/23 03:51:07;;;;;;;5.38;3.58;;;11.90;99.90;;;;;;4999054;28;20117;-81
2022/10/23 03:53:49;;;;;;;4.65;3.67;;;11.90;99.90;;;;;;5021312;28;20397;-80
2022/10/23 03:56:15;;;;;;;5.95;3.90;;;11.90;99.90;;;;;;5039896;28;20082;-80
2022/10/23 03:58:41;;;;;;;6.53;3.58;;;11.90;99.90;;;;;;5025314;28;20009;-80
2022/10/23 04:01:07;;;;;;;5.72;3.03;;;11.90;99.90;;;;;;5024780;28;20037;-79
2022/10/23 04:03:33;;;;;;;6.45;3.78;;;11.90;99.90;;;;;;5037013;28;20022;-80
2022/10/23 04:05:59;;;;;;;5.13;3.40;;;11.90;99.90;;;;;;5018663;28;20021;-80
2022/10/23 04:08:25;;;;;;;5.85;3.63;;;12.00;99.90;;;;;;5018393;28;20121;-81
2022/10/23 04:10:52;;;;;;;5.18;3.40;;;12.00;99.90;;;;;;5036669;28;20025;-80
2022/10/23 04:13:18;;;;;;;6.68;3.40;;;12.00;99.90;;;;;;5035968;28;20025;-81
2022/10/23 04:15:51;;;;;;;5.85;3.40;;;12.10;99.90;;;;;;5014267;28;20030;-81
2022/10/23 04:18:18;;;;;;;7.95;4.20;;;12.10;99.90;;;;;;4999020;28;20030;-81
2022/10/23 04:20:49;;;;;;;5.55;3.67;;;12.10;99.90;;;;;;4998913;28;20064;-81
2022/10/23 04:23:18;;;;;;;6.13;3.65;;;12.10;99.90;;;;;;4998506;28;20018;-80
2022/10/23 04:25:45;;;;;;;6.78;4.22;;;12.10;99.90;;;;;;4999761;28;20029;-80
2022/10/23 04:28:11;;;;;;;8.00;4.57;;;12.10;99.90;;;;;;5018128;28;20481;-80
2022/10/23 04:30:37;;;;;;;7.03;4.32;;;12.20;99.90;;;;;;5035416;28;20539;-80
2022/10/23 04:33:03;;;;;;;6.75;4.63;;;12.10;99.90;;;;;;5017788;28;20026;-80
2022/10/23 04:35:29;;;;;;;7.05;4.00;;;12.10;99.90;;;;;;5017546;28;20028;-81
2022/10/23 04:37:55;;;;;;;6.57;4.38;;;12.10;99.90;;;;;;5004237;28;20030;-81
2022/10/23 04:40:22;;;;;;;6.97;4.18;;;12.10;99.90;;;;;;5015721;28;20034;-80
2022/10/23 04:42:49;;;;;;;6.22;3.70;;;12.10;99.90;;;;;;4985514;28;20050;-80
2022/10/23 04:45:15;;;;;;;7.25;4.13;;;12.10;99.90;;;;;;5017132;28;20045;-80
2022/10/23 04:47:41;;;;;;;6.78;3.72;;;12.10;99.90;;;;;;5009330;28;20068;-80
2022/10/23 04:50:07;;;;;;;6.25;4.00;;;12.10;99.90;;;;;;5014889;28;20038;-81
2022/10/23 04:52:33;;;;;;;7.93;3.72;;;12.10;99.90;;;;;;4997938;28;20033;-81
2022/10/23 04:54:59;;;;;;;8.00;4.13;;;12.10;99.90;;;;;;4998251;28;20026;-81
2022/10/23 04:57:25;;;;;;;4.82;3.30;;;12.10;99.90;;;;;;4998010;28;20088;-81
2022/10/23 04:59:51;;;;;;;5.50;3.08;;;12.20;99.90;;;;;;4997135;28;20034;-81
2022/10/23 05:02:18;;;;;;;5.28;3.38;;;12.10;99.90;;;;;;4997308;28;20029;-81
2022/10/23 05:04:44;;;;;;;6.15;3.60;;;12.10;99.90;;;;;;4998026;28;20026;-81
2022/10/23 05:07:10;;;;;;;5.97;3.30;;;12.20;99.90;;;;;;4997348;28;20485;-80
2022/10/23 05:09:36;;;;;;;6.53;3.47;;;12.20;99.90;;;;;;4997177;28;20037;-81
2022/10/23 05:12:02;;;;;;;7.22;3.22;;;12.20;99.90;;;;;;5014390;28;20041;-81
2022/10/23 05:14:28;;;;;;;4.90;3.10;;;12.20;99.90;;;;;;4997056;28;20037;-81
2022/10/23 05:17:01;;;;;;;5.13;3.03;;;12.20;99.90;;;;;;5001690;28;20022;-81
2022/10/23 05:19:35;;;;;;;6.38;3.13;;;12.20;99.90;;;;;;4987286;28;20424;-80
2022/10/23 05:22:02;;;;;;;5.88;3.38;;;12.20;99.90;;;;;;5014948;28;20084;-80
2022/10/23 05:24:28;;;;;;;5.68;3.15;;;12.30;99.90;;;;;;5014680;28;20018;-81
2022/10/23 05:26:56;;;;;;;5.43;3.13;;;12.30;99.90;;;;;;4997172;28;20032;-81
2022/10/23 05:29:22;;;;;;;7.20;3.58;;;12.30;99.90;;;;;;4996741;28;20036;-81
2022/10/23 05:31:52;;;;;;;5.22;3.00;;;12.30;99.90;;;;;;4987751;28;20109;-80
2022/10/23 05:34:21;;;;;;;6.18;3.00;;;12.40;99.90;;;;;;4978572;28;20027;-81
2022/10/23 05:36:47;;;;;;;5.28;3.15;;;12.40;99.90;;;;;;5001203;28;20022;-81
2022/10/23 05:39:13;;;;;;;5.28;3.55;;;12.40;99.90;;;;;;4992382;28;20041;-80
2022/10/23 05:41:40;;;;;;;5.75;3.10;;;12.50;99.90;;;;;;5003931;28;20057;-80
2022/10/23 05:44:05;;;;;;;5.70;3.45;;;12.50;99.90;;;;;;4996301;28;20027;-80
2022/10/23 05:46:31;;;;;;;6.05;2.97;;;12.60;99.90;;;;;;4976833;28;20378;-81
2022/10/23 05:48:58;;;;;;;5.05;2.80;;;12.60;99.90;;;;;;5031244;28;20045;-80
2022/10/23 05:51:24;;;;;;;4.65;2.80;;;12.70;99.90;;;;;;5044694;28;20081;-81
2022/10/23 05:53:57;;;;;;;4.95;2.80;;;12.70;99.90;;;;;;5034597;28;20012;-80
2022/10/23 05:56:23;;;;;;;4.88;3.17;;;12.70;99.90;;;;;;5038935;28;20022;-79
2022/10/23 05:58:49;;;;;;;5.32;2.83;;;12.80;99.90;;;;;;5023591;28;20032;-80
2022/10/23 06:01:17;;;;;;;5.50;3.20;;;12.80;99.90;;;;;;5020434;28;20022;-80
2022/10/23 06:03:43;;;;;;;4.82;2.88;;;12.80;99.90;;;;;;5017334;28;20022;-81
2022/10/23 06:06:09;;;;;;;5.60;2.55;;;12.80;99.90;;;;;;5017088;28;20025;-81
2022/10/23 06:08:35;;;;;;;5.55;3.38;;;12.80;99.90;;;;;;5016668;28;20394;-80
2022/10/23 06:11:09;;;;;;;5.38;2.63;;;12.80;99.90;;;;;;5016788;28;20424;-81
2022/10/23 06:13:35;;;;;;;6.55;3.60;;;12.90;99.90;;;;;;5033833;28;20064;-81
2022/10/23 06:16:19;;;;;;;5.07;2.90;;;12.80;99.90;;;;;;5015192;28;20559;-81
2022/10/23 06:18:45;;;;;;;;;;;12.90;99.90;;;;;;5015656;28;20030;-80
2022/10/23 06:21:11;;;;;;;3.70;2.42;;;12.80;99.90;;;;;;5015318;28;20040;-81
2022/10/23 06:23:38;;;;;;;4.95;2.60;;;12.80;99.90;;;;;;5029430;28;20064;-80
2022/10/23 06:26:05;;;;;;;4.63;2.53;;;12.90;99.90;;;;;;5010698;28;20022;-80
2022/10/23 06:28:31;;;;;;;4.63;2.95;;;12.90;99.90;;;;;;4995312;28;20044;-81
2022/10/23 06:30:57;;;;;;;4.40;3.00;;;12.90;99.90;;;;;;5011662;28;20042;-81
2022/10/23 06:33:23;;;;;;;3.80;2.25;;;12.90;99.90;;;;;;4995082;28;20026;-80
2022/10/23 06:35:50;;;;;;;5.15;2.95;;;12.90;99.90;;;;;;5014740;28;20088;-80
2022/10/23 06:38:16;;;;;;;5.70;2.88;;;12.90;99.90;;;;;;5008751;28;20080;-80
2022/10/23 06:40:44;;;;;;;6.07;2.78;;;12.90;99.90;;;;;;4995815;28;20084;-80
2022/10/23 06:43:10;;;;;;;3.95;2.58;;;12.90;99.90;;;;;;4998035;28;20017;-79
2022/10/23 06:45:36;;;;;;;5.43;2.63;;;13.00;99.90;;;;;;4989510;28;20108;-80
2022/10/23 06:48:02;;;;;;;4.40;2.60;;;13.00;99.90;;;;;;4994067;28;20120;-80
2022/10/23 06:50:30;;;;;;;3.35;2.33;;;13.00;99.90;;;;;;4999081;28;20490;-79
2022/10/23 06:52:56;;;;;;;4.90;2.72;;;13.00;99.90;;;;;;5012030;28;20026;-80
2022/10/23 06:55:23;;;;;;;3.60;2.40;;;13.00;99.90;;;;;;4995097;28;20053;-80
2022/10/23 06:57:49;;;;;;;4.57;2.83;;;13.10;99.90;;;;;;4994930;28;20034;-79
2022/10/23 07:00:16;;;;;;;4.28;2.58;;;13.10;99.90;;;;;;5015886;28;20041;-80
2022/10/23 07:02:42;;;;;;;4.60;2.70;;;13.10;99.90;;;;;;4998046;28;20022;-80
2022/10/23 07:05:08;;;;;;;5.28;2.85;;;13.10;99.90;;;;;;4997964;28;20092;-80
2022/10/23 07:07:34;;;;;;;5.20;2.78;;;13.10;99.90;;;;;;4997955;28;20117;-80
2022/10/23 07:10:00;;;;;;;5.65;2.70;;;13.10;99.90;;;;;;5012784;28;20014;-80
2022/10/23 07:12:28;;;;;;;4.95;2.70;;;13.10;99.90;;;;;;4997981;28;20160;-80
2022/10/23 07:14:54;;;;;;;4.53;2.50;;;13.10;99.90;;;;;;4997408;28;20057;-80
2022/10/23 07:17:20;;;;;;;4.03;2.67;;;13.10;99.90;;;;;;4997997;28;20045;-80
2022/10/23 07:19:46;;;;;;;4.85;3.05;;;13.10;99.90;;;;;;4997949;28;20030;-80
2022/10/23 07:22:13;;;;;;;5.50;3.10;;;13.20;99.90;;;;;;4997565;28;20028;-80
2022/10/23 07:24:39;;;;;;;5.43;3.25;;;13.20;99.90;;;;;;5003095;28;20030;-80
2022/10/23 07:27:06;;;;;;;4.22;2.22;;;13.20;99.90;;;;;;4997302;28;20549;-80
2022/10/23 07:29:32;;;;;;;3.75;2.38;;;13.30;99.90;;;;;;4997566;28;20073;-80
2022/10/23 07:32:03;;;;;;;4.22;2.47;;;13.30;99.90;;;;;;5017403;28;20048;-80
2022/10/23 07:34:30;;;;;;;5.32;2.95;;;13.30;99.90;;;;;;4997607;28;20037;-80
2022/10/23 07:36:58;;;;;;;4.00;2.58;;;13.40;99.90;;;;;;4998237;28;20022;-80
2022/10/23 07:39:24;;;;;;;7.25;2.63;;;13.40;99.90;;;;;;4996427;28;20030;-81
2022/10/23 07:41:50;;;;;;;4.93;2.95;;;13.40;99.90;;;;;;4997399;28;20116;-80
2022/10/23 07:44:16;;;;;;;6.85;2.80;;;13.50;99.90;;;;;;4997554;28;20055;-80
2022/10/23 07:46:42;;;;;;;5.65;2.92;;;13.50;99.90;;;;;;5014047;28;20049;-80
2022/10/23 07:49:10;;;;;;;5.05;2.65;;;13.50;99.90;;;;;;5015290;28;20045;-80
2022/10/23 07:51:36;;;;;;;4.03;2.42;;;13.50;99.90;;;;;;5002217;28;20504;-80
2022/10/23 07:54:12;;;;;;;4.47;2.60;;;13.60;99.90;;;;;;5035380;28;20073;-79
2022/10/23 07:56:38;;;;;;;4.78;2.42;;;13.60;99.90;;;;;;5021872;28;20022;-81
2022/10/23 07:59:04;;;;;;;4.50;2.80;;;13.60;99.90;;;;;;5033243;28;20034;-80
2022/10/23 08:01:37;;;;;;;4.65;2.35;;;13.70;99.90;;;;;;5018469;28;20022;-80
2022/10/23 08:04:03;;;;;;;4.68;2.97;;;13.70;99.90;;;;;;5002727;28;20022;-80
2022/10/23 08:06:30;;;;;;;5.40;2.65;;;13.70;99.90;;;;;;4998259;28;20026;-80
2022/10/23 08:08:56;;;;;;;4.05;2.55;;;13.80;99.90;;;;;;4998066;28;20022;-79
2022/10/23 08:11:26;;;;;;;4.47;2.28;;;13.80;99.90;;;;;;4997300;28;20087;-80
2022/10/23 08:13:56;;;;;;;6.07;2.50;;;13.90;99.90;;;;;;5015068;28;20026;-80
2022/10/23 08:16:23;;;;;;;3.83;2.10;;;13.90;99.90;;;;;;5015026;28;20499;-80
2022/10/23 08:18:50;;;;;;;4.93;2.28;;;13.90;99.90;;;;;;4997393;28;20540;-80
2022/10/23 08:21:17;;;;;;;4.03;2.33;;;13.90;99.90;;;;;;5014879;28;20069;-81
2022/10/23 08:23:44;;;;;;;5.15;2.53;;;13.90;99.90;;;;;;5015025;28;20026;-81
2022/10/23 08:26:10;;;;;;;5.25;2.60;;;13.90;99.90;;;;;;5013914;28;20076;-80
2022/10/23 08:28:36;;;;;;;4.35;2.40;;;14.00;99.90;;;;;;5001438;28;20038;-81
2022/10/23 08:31:11;;;;;;;4.50;2.70;;;14.00;99.90;;;;;;4996438;28;20061;-80
2022/10/23 08:33:38;;;;;;;5.20;2.38;;;14.10;99.90;;;;;;4996098;28;20033;-80
2022/10/23 08:36:05;;;;;;;6.25;3.08;;;14.10;99.90;;;;;;4991877;28;20074;-81
2022/10/23 08:38:32;;;;;;;3.83;2.40;;;14.20;99.90;;;;;;4995711;28;20053;-81
2022/10/23 08:41:01;;;;;;;6.72;2.53;;;14.30;99.90;;;;;;4990229;28;20022;-81
2022/10/23 08:43:42;;;;;;;5.50;2.40;;;14.30;99.90;;;;;;4995891;28;20021;-81
2022/10/23 08:46:14;;;;;;;3.72;2.30;;;14.40;99.90;;;;;;5012724;28;20187;-81
2022/10/23 08:48:43;;;;;;;4.13;2.45;;;14.50;99.90;;;;;;4991124;28;20048;-80
2022/10/23 08:51:31;;;;;;;5.38;2.45;;;14.50;99.90;;;;;;4998156;28;20084;-80
2022/10/23 08:54:03;;;;;;;4.38;2.22;;;14.60;99.90;;;;;;4995437;28;20436;-80
2022/10/23 08:56:36;;;;;;;4.95;2.60;;;14.70;99.90;;;;;;5015936;28;20030;-81
2022/10/23 08:59:25;;;;;;;6.05;2.50;;;14.80;99.90;;;;;;4990903;28;20044;-80
2022/10/23 09:02:01;;;;;;;4.10;2.28;;;14.90;99.90;;;;;;4995950;28;20545;-80
2022/10/23 09:04:27;;;;;;;3.83;2.17;;;14.90;99.90;;;;;;5015477;28;20493;-81
2022/10/23 09:07:17;;;;;;;4.78;2.50;;;15.00;99.90;;;;;;4997471;28;20025;-81
2022/10/23 09:10:17;;;;;;;4.45;2.58;;;15.10;99.90;;;;;;4995101;28;20062;-81
2022/10/23 09:12:44;;;;;;;3.72;1.88;;;15.20;99.90;;;;;;4980444;28;20122;-81
2022/10/23 09:15:35;;;;;;;5.07;2.35;;;15.30;99.90;;;;;;4995918;28;20539;-80
2022/10/23 09:18:11;;;;;;;4.90;1.90;;;15.30;99.90;;;;;;4994351;28;20049;-81
2022/10/23 09:20:40;;;;;;;4.32;2.10;;;15.30;99.90;;;;;;5010086;28;20014;-81
2022/10/23 09:23:22;;;;;;;5.60;2.00;;;15.20;99.90;;;;;;5012105;28;20108;-80
2022/10/23 09:25:55;;;;;;;3.20;1.67;;;15.10;99.90;;;;;;4995800;28;20042;-81
2022/10/23 09:28:29;;;;;;;3.75;2.10;;;15.20;99.90;;;;;;4992843;28;20050;-81
2022/10/23 09:31:11;;;;;;;5.70;2.33;;;15.10;99.90;;;;;;5009453;28;20362;-81
2022/10/23 09:33:38;;;;;;;4.30;2.17;;;15.20;99.90;;;;;;5012697;28;20376;-81
2022/10/23 09:36:08;;;;;;;4.25;2.20;;;15.20;99.90;;;;;;5012690;28;20029;-81
2022/10/23 09:38:36;;;;;;;3.30;1.98;;;15.20;99.90;;;;;;5013154;28;20025;-81
2022/10/23 09:41:25;;;;;;;5.63;2.28;;;15.30;99.90;;;;;;5013149;28;20022;-80
2022/10/23 09:44:03;;;;;;;3.70;1.90;;;15.40;99.90;;;;;;4982748;28;20115;-81
2022/10/23 09:47:04;;;;;;;3.75;2.08;;;15.30;99.90;;;;;;5011745;28;20093;-81
2022/10/23 09:49:33;;;;;;;4.10;1.80;;;15.30;99.90;;;;;;4900405;29;20043;-81
2022/10/23 09:52:00;;;;;;;5.13;1.83;;;15.30;99.90;;;;;;4980981;28;20049;-81
2022/10/23 09:54:32;;;;;;;5.10;1.90;;;15.40;99.90;;;;;;5029234;28;20018;-80
2022/10/23 09:57:20;;;;;;;5.05;2.03;;;15.50;99.90;;;;;;5035919;28;20022;-81
2022/10/23 09:59:51;;;;;;;3.88;2.08;;;15.60;99.90;;;;;;5015473;28;20025;-81
2022/10/23 10:02:29;;;;;;;3.20;1.83;;;15.60;99.90;;;;;;4994707;28;20037;-81
2022/10/23 10:04:55;;;;;;;3.03;1.90;;;15.70;99.90;;;;;;4989306;28;20053;-80
2022/10/23 10:07:27;;;;;;;4.53;1.77;;;15.70;99.90;;;;;;4990384;28;20031;-81
2022/10/23 10:09:57;;;;;;;3.83;2.00;;;15.80;99.90;;;;;;5011506;28;20030;-80
2022/10/23 10:12:34;;;;;;;2.55;1.70;;;15.80;99.90;;;;;;5006386;28;20034;-80
2022/10/23 10:15:21;;;;;;;4.05;1.83;;;15.80;99.90;;;;;;5000246;28;20041;-82
2022/10/23 10:18:13;;;;;;;4.90;1.83;;;15.90;99.90;;;;;;4995740;28;20074;-83
2022/10/23 10:20:47;;;;;;;3.15;1.90;;;16.00;99.90;;;;;;4997934;28;20026;-81
2022/10/23 10:23:15;;;;;;;3.30;2.00;;;16.00;99.90;;;;;;4996716;28;20373;-81
2022/10/23 10:25:56;;;;;;;5.25;2.15;;;16.10;99.90;;;;;;4999208;28;20101;-82
2022/10/23 10:28:59;;;;;;;3.03;1.80;;;16.10;99.90;;;;;;4995054;28;20050;-82
2022/10/23 10:31:33;;;;;;;4.85;1.77;;;16.20;99.90;;;;;;4991639;28;20041;-82
2022/10/23 10:34:05;;;;;;;4.32;2.00;;;16.20;99.90;;;;;;5009821;28;20033;-81
2022/10/23 10:36:52;;;;;;;4.80;1.95;;;16.30;99.90;;;;;;5015157;28;20792;-83
2022/10/23 10:39:21;;;;;;;3.25;1.75;;;16.30;99.90;;;;;;5010232;28;20381;-82
2022/10/23 10:41:59;;;;;;;3.53;1.85;;;16.30;99.90;;;;;;5019060;28;20076;-83
2022/10/23 10:45:00;;;;;;;4.90;2.55;;;16.30;99.90;;;;;;5010737;28;20021;-82
2022/10/23 10:47:50;;;;;;;4.60;2.10;;;16.40;99.90;;;;;;4966341;28;20038;-81
2022/10/23 10:50:51;;;;;;;3.05;1.80;;;16.40;99.90;;;;;;4982962;28;20049;-82
2022/10/23 10:53:37;;;;;;;3.00;1.70;;;16.40;99.90;;;;;;5015741;28;20113;-82
2022/10/23 10:56:07;;;;;;;4.50;1.92;;;16.40;99.90;;;;;;4998751;28;20034;-82
2022/10/23 10:58:39;;;;;;;2.85;1.85;;;16.40;99.90;;;;;;4996454;28;20062;-82
2022/10/23 11:01:30;;;;;;;4.35;2.17;;;16.50;99.90;;;;;;4984611;28;20032;-82
2022/10/23 11:04:12;;;;;;;3.90;2.10;;;16.50;99.90;;;;;;5002634;28;20025;-81
2022/10/23 11:06:40;;;;;;;4.13;1.90;;;16.60;99.90;;;;;;5000947;28;20061;-80
2022/10/23 11:09:23;;;;;;;3.17;1.83;;;16.70;99.90;;;;;;4999202;28;20026;-82
2022/10/23 11:11:49;;;;;;;3.72;2.00;;;16.70;99.90;;;;;;4999894;28;20192;-82
2022/10/23 11:14:17;;;;;;;2.70;1.77;;;16.80;99.90;;;;;;5019119;28;20026;-82
2022/10/23 11:16:48;;;;;;;3.50;1.90;;;16.90;99.90;;;;;;5003145;28;20037;-82
2022/10/23 11:19:26;;;;;;;4.35;1.70;;;16.90;99.90;;;;;;5005719;28;20106;-82
2022/10/23 11:22:20;;;;;;;3.10;1.67;;;17.00;99.90;;;;;;5008657;28;20037;-83
2022/10/23 11:24:58;;;;;;;4.05;2.10;;;17.00;99.90;;;;;;5002174;28;20026;-83
2022/10/23 11:27:33;;;;;;;3.97;1.90;;;17.10;99.90;;;;;;5001224;28;20034;-83
2022/10/23 11:30:02;;;;;;;3.53;1.90;;;17.20;99.90;;;;;;4997151;28;20102;-82
2022/10/23 11:32:27;;;;;;;7.65;2.22;;;17.40;99.90;;;;;;4992504;28;20037;-84
2022/10/23 11:35:16;;;;;;;4.10;2.28;;;17.50;99.90;;;;;;5009059;28;20030;-82
2022/10/23 11:37:43;;;;;;;4.38;2.40;;;17.60;99.90;;;;;;4979783;28;20105;-81
2022/10/23 11:40:09;;;;;;;5.53;2.38;;;17.70;99.90;;;;;;4996081;28;20030;-82
2022/10/23 11:42:38;;;;;;;3.55;2.15;;;17.80;99.90;;;;;;4976665;28;20114;-82
2022/10/23 11:45:24;;;;;;;4.43;1.80;;;17.90;99.90;;;;;;4978552;28;20414;-82
2022/10/23 11:48:01;;;;;;;5.18;1.98;;;18.00;99.90;;;;;;4989729;28;20046;-82
2022/10/23 11:50:31;;;;;;;2.50;1.65;;;18.00;99.90;;;;;;5016285;28;20034;-83
2022/10/23 11:53:03;;;;;;;4.13;1.85;;;18.00;99.90;;;;;;5019336;28;20069;-82
2022/10/23 11:55:38;;;;;;;4.80;1.80;;;18.10;99.90;;;;;;5029896;28;20050;-81
2022/10/23 11:58:14;;;;;;;4.03;2.00;;;18.10;99.90;;;;;;5039101;28;20018;-83
2022/10/23 12:00:53;;;;;;;4.95;2.05;;;18.10;99.90;;;;;;5037782;28;20038;-82
2022/10/23 12:03:41;;;;;;;4.60;1.95;;;18.20;99.90;;;;;;5001132;28;20030;-82
2022/10/23 12:06:25;;;;;;;4.55;2.25;;;18.30;99.90;;;;;;5008424;28;20049;-81
2022/10/23 12:08:55;;;;;;;5.15;2.25;;;18.40;99.90;;;;;;4999732;28;20030;-82
2022/10/23 12:11:45;;;;;;;3.85;2.38;;;18.70;99.90;;;;;;5009529;28;20110;-82
2022/10/23 12:14:25;;;;;;;3.58;2.10;;;19.00;99.90;;;;;;5014121;28;20022;-82
2022/10/23 12:16:51;;;;;;;5.63;2.30;;;19.30;99.90;;;;;;5016229;28;20028;-82
2022/10/23 12:19:22;;;;;;;3.75;1.77;;;19.50;99.90;;;;;;5015197;28;20478;-82
2022/10/23 12:22:00;;;;;;;3.95;2.22;;;19.80;99.90;;;;;;5015892;28;20101;-83
2022/10/23 12:24:38;;;;;;;3.97;1.80;;;20.00;99.90;;;;;;5016189;28;20028;-81
2022/10/23 12:27:17;;;;;;;3.20;1.85;;;20.20;99.90;;;;;;5007218;28;20030;-83
2022/10/23 12:30:08;;;;;;;5.63;2.30;;;20.40;99.90;;;;;;5010651;28;20029;-82
2022/10/23 12:32:53;;;;;;;4.75;2.75;;;20.50;99.90;;;;;;5017500;28;20034;-81
2022/10/23 12:36:07;;;;;;;3.65;2.00;;;20.20;99.90;;;;;;5014240;28;20022;-81
2022/10/23 12:38:45;;;;;;;3.08;1.63;;;20.00;99.90;;;;;;5001196;28;20034;-82
2022/10/23 12:41:16;;;;;;;4.45;2.00;;;19.90;99.90;;;;;;5014302;28;20502;-82
2022/10/23 12:43:49;;;;;;;5.13;1.70;;;19.90;99.90;;;;;;5013006;28;20125;-82
2022/10/23 12:46:26;;;;;;;3.40;1.90;;;19.80;99.90;;;;;;5013923;28;20070;-82
2022/10/23 12:48:55;;;;;;;2.90;1.58;;;19.70;99.90;;;;;;5006140;28;20133;-82
2022/10/23 12:51:34;;;;;;;3.67;1.55;;;19.70;99.90;;;;;;4998316;28;20053;-81
2022/10/23 12:54:02;;;;;;;4.82;1.48;;;19.80;99.90;;;;;;4965202;28;20022;-81
2022/10/23 12:56:35;;;;;;;3.50;1.33;;;19.90;99.90;;;;;;4977983;28;20037;-82
2022/10/23 12:59:03;;;;;;;3.35;1.48;;;19.90;99.90;;;;;;4997126;28;20057;-82
2022/10/23 13:01:31;;;;;;;2.35;1.17;;;20.00;99.90;;;;;;4998202;28;20034;-82
2022/10/23 13:04:34;;;;;;;2.10;1.27;;;20.10;99.90;;;;;;4979274;28;20018;-80
2022/10/23 13:07:03;;;;;;;2.53;1.30;;;20.10;99.90;;;;;;4962133;28;20061;-82
2022/10/23 13:09:31;;;;;;;2.20;1.20;;;20.00;99.90;;;;;;4978031;28;20026;-82
2022/10/23 13:11:59;;;;;;;2.85;1.60;;;20.00;99.90;;;;;;4978342;28;20292;-82
2022/10/23 13:14:31;;;;;;;5.65;1.70;;;19.90;99.90;;;;;;4977960;28;20046;-83
2022/10/23 13:17:03;;;;;;;4.10;1.80;;;19.80;99.90;;;;;;4978281;28;20104;-82